sensor_id;sensor_type;location;lat;lon;timestamp;temperature;humidity
37518;DHT22;23366;52.498;13.446;2022-09-02T00:02:21;15.40;99.90
37518;DHT22;23366;52.498;13.446;2022-09-02T00:04:47;15.40;99.90
37518;DHT22;23366;52.498;13.446;2022-09-02T00:07:13;15.40;99.90
37518;DHT22;23366;52.498;13.446;2022-09-02T00:09:38;15.30;99.90
37518;DHT22;23366;52.498;13.446;2022-09-02T00:12:05;15.30;99.90
37518;DHT22;23366;52.498;13.446;2022-09-02T00:14:35;15.30;99.90
37518;DHT22;23366;52.498;13.446;2022-09-02T00:17:01;15.40;99.90
37518;DHT22;23366;52.498;13.446;2022-09-02T00:19:28;15.30;99.90
37518;DHT22;23366;52.498;13.446;2022-09-02T00:21:55;15.20;99.90
37518;DHT22;23366;52.498;13.446;2022-09-02T00:24:22;15.20;99.90
37518;DHT22;23366;52.498;13.446;2022-09-02T00:26:48;15.20;99.90
37518;DHT22;23366;52.498;13.446;2022-09-02T00:29:14;15.20;99.90
37518;DHT22;23366;52.498;13.446;2022-09-02T00:31:43;15.20;99.90
37518;DHT22;23366;52.498;13.446;2022-09-02T00:34:10;15.20;99.90
37518;DHT22;23366;52.498;13.446;2022-09-02T00:36:36;15.20;99.90
37518;DHT22;23366;52.498;13.446;2022-09-02T00:39:04;15.30;99.90
37518;DHT22;23366;52.498;13.446;2022-09-02T00:41:31;15.20;99.90
37518;DHT22;23366;52.498;13.446;2022-09-02T00:44:01;15.20;99.90
37518;DHT22;23366;52.498;13.446;2022-09-02T00:46:29;15.30;99.90
37518;DHT22;23366;52.498;13.446;2022-09-02T00:49:25;15.30;99.90
37518;DHT22;23366;52.498;13.446;2022-09-02T00:52:07;15.30;99.90
37518;DHT22;23366;52.498;13.446;2022-09-02T00:54:36;15.30;99.90
37518;DHT22;23366;52.498;13.446;2022-09-02T00:57:08;15.30;99.90
37518;DHT22;23366;52.498;13.446;2022-09-02T00:59:42;15.20;99.90
37518;DHT22;23366;52.498;13.446;2022-09-02T01:02:09;15.20;99.90
37518;DHT22;23366;52.498;13.446;2022-09-02T01:04:35;15.30;99.90
37518;DHT22;23366;52.498;13.446;2022-09-02T01:07:00;15.30;99.90
37518;DHT22;23366;52.498;13.446;2022-09-02T01:09:27;15.30;99.90
37518;DHT22;23366;52.498;13.446;2022-09-02T01:11:53;15.20;99.90
37518;DHT22;23366;52.498;13.446;2022-09-02T01:14:20;15.20;99.90
37518;DHT22;23366;52.498;13.446;2022-09-02T01:16:50;15.20;99.90
37518;DHT22;23366;52.498;13.446;2022-09-02T01:19:29;15.20;99.90
37518;DHT22;23366;52.498;13.446;2022-09-02T01:21:56;15.20;99.90
37518;DHT22;23366;52.498;13.446;2022-09-02T01:24:25;15.20;99.90
37518;DHT22;23366;52.498;13.446;2022-09-02T01:26:53;15.20;99.90
37518;DHT22;23366;52.498;13.446;2022-09-02T01:29:19;15.30;99.90
37518;DHT22;23366;52.498;13.446;2022-09-02T01:31:44;15.30;99.90
37518;DHT22;23366;52.498;13.446;2022-09-02T01:34:10;15.30;99.90
37518;DHT22;23366;52.498;13.446;2022-09-02T01:36:37;15.30;99.90
37518;DHT22;23366;52.498;13.446;2022-09-02T01:39:03;15.30;99.90
37518;DHT22;23366;52.498;13.446;2022-09-02T01:41:28;15.20;99.90
37518;DHT22;23366;52.498;13.446;2022-09-02T01:43:54;15.10;99.90
37518;DHT22;23366;52.498;13.446;2022-09-02T01:46:21;15.10;99.90
37518;DHT22;23366;52.498;13.446;2022-09-02T01:48:48;15.20;99.90
37518;DHT22;23366;52.498;13.446;2022-09-02T01:51:16;15.10;99.90
37518;DHT22;23366;52.498;13.446;2022-09-02T01:53:43;15.10;99.90
37518;DHT22;23366;52.498;13.446;2022-09-02T01:56:08;15.10;99.90
37518;DHT22;23366;52.498;13.446;2022-09-02T01:58:34;15.10;99.90
37518;DHT22;23366;52.498;13.446;2022-09-02T02:01:00;15.00;99.90
37518;DHT22;23366;52.498;13.446;2022-09-02T02:03:25;15.00;99.90
37518;DHT22;23366;52.498;13.446;2022-09-02T02:05:51;14.90;99.90
37518;DHT22;23366;52.498;13.446;2022-09-02T02:08:16;14.90;99.90
37518;DHT22;23366;52.498;13.446;2022-09-02T02:10:42;14.90;99.90
37518;DHT22;23366;52.498;13.446;2022-09-02T02:13:08;14.90;99.90
37518;DHT22;23366;52.498;13.446;2022-09-02T02:15:37;14.80;99.90
37518;DHT22;23366;52.498;13.446;2022-09-02T02:18:03;14.90;99.90
37518;DHT22;23366;52.498;13.446;2022-09-02T02:20:29;14.90;99.90
37518;DHT22;23366;52.498;13.446;2022-09-02T02:22:54;14.80;99.90
37518;DHT22;23366;52.498;13.446;2022-09-02T02:25:20;14.80;99.90
37518;DHT22;23366;52.498;13.446;2022-09-02T02:27:46;14.80;99.90
37518;DHT22;23366;52.498;13.446;2022-09-02T02:30:13;14.80;99.90
37518;DHT22;23366;52.498;13.446;2022-09-02T02:32:39;14.70;99.90
37518;DHT22;23366;52.498;13.446;2022-09-02T02:35:07;14.70;99.90
37518;DHT22;23366;52.498;13.446;2022-09-02T02:37:32;14.70;99.90
37518;DHT22;23366;52.498;13.446;2022-09-02T02:39:58;14.80;99.90
37518;DHT22;23366;52.498;13.446;2022-09-02T02:42:23;14.70;99.90
37518;DHT22;23366;52.498;13.446;2022-09-02T02:44:49;14.80;99.90
37518;DHT22;23366;52.498;13.446;2022-09-02T02:47:15;14.70;99.90
37518;DHT22;23366;52.498;13.446;2022-09-02T02:49:42;14.80;99.90
37518;DHT22;23366;52.498;13.446;2022-09-02T02:52:09;14.70;99.90
37518;DHT22;23366;52.498;13.446;2022-09-02T02:54:35;14.70;99.90
37518;DHT22;23366;52.498;13.446;2022-09-02T02:57:01;14.70;99.90
37518;DHT22;23366;52.498;13.446;2022-09-02T02:59:26;14.70;99.90
37518;DHT22;23366;52.498;13.446;2022-09-02T03:01:53;14.70;99.90
37518;DHT22;23366;52.498;13.446;2022-09-02T03:04:19;14.60;99.90
37518;DHT22;23366;52.498;13.446;2022-09-02T03:06:45;14.60;99.90
37518;DHT22;23366;52.498;13.446;2022-09-02T03:09:10;14.60;99.90
37518;DHT22;23366;52.498;13.446;2022-09-02T03:11:36;14.50;99.90
37518;DHT22;23366;52.498;13.446;2022-09-02T03:14:02;14.50;99.90
37518;DHT22;23366;52.498;13.446;2022-09-02T03:16:27;14.50;99.90
37518;DHT22;23366;52.498;13.446;2022-09-02T03:18:53;14.40;99.90
37518;DHT22;23366;52.498;13.446;2022-09-02T03:21:18;14.40;99.90
37518;DHT22;23366;52.498;13.446;2022-09-02T03:23:44;14.40;99.90
37518;DHT22;23366;52.498;13.446;2022-09-02T03:26:14;14.40;99.90
37518;DHT22;23366;52.498;13.446;2022-09-02T03:28:39;14.40;99.90
37518;DHT22;23366;52.498;13.446;2022-09-02T03:31:05;14.30;99.90
37518;DHT22;23366;52.498;13.446;2022-09-02T03:33:31;14.40;99.90
37518;DHT22;23366;52.498;13.446;2022-09-02T03:35:57;14.40;99.90
37518;DHT22;23366;52.498;13.446;2022-09-02T03:38:23;14.40;99.90
37518;DHT22;23366;52.498;13.446;2022-09-02T03:40:49;14.30;99.90
37518;DHT22;23366;52.498;13.446;2022-09-02T03:43:15;14.30;99.90
37518;DHT22;23366;52.498;13.446;2022-09-02T03:45:40;14.20;99.90
37518;DHT22;23366;52.498;13.446;2022-09-02T03:48:07;14.20;99.90
37518;DHT22;23366;52.498;13.446;2022-09-02T03:50:36;14.20;99.90
37518;DHT22;23366;52.498;13.446;2022-09-02T03:53:04;14.10;99.90
37518;DHT22;23366;52.498;13.446;2022-09-02T03:55:30;14.00;99.90
37518;DHT22;23366;52.498;13.446;2022-09-02T03:57:56;14.00;99.90
37518;DHT22;23366;52.498;13.446;2022-09-02T04:00:23;14.00;99.90
37518;DHT22;23366;52.498;13.446;2022-09-02T04:02:50;14.00;99.90
37518;DHT22;23366;52.498;13.446;2022-09-02T04:05:16;14.00;99.90
37518;DHT22;23366;52.498;13.446;2022-09-02T04:07:42;14.00;99.90
37518;DHT22;23366;52.498;13.446;2022-09-02T04:10:09;13.90;99.90
37518;DHT22;23366;52.498;13.446;2022-09-02T04:12:36;13.90;99.90
37518;DHT22;23366;52.498;13.446;2022-09-02T04:15:03;13.90;99.90
37518;DHT22;23366;52.498;13.446;2022-09-02T04:17:29;13.90;99.90
37518;DHT22;23366;52.498;13.446;2022-09-02T04:19:55;13.90;99.90
37518;DHT22;23366;52.498;13.446;2022-09-02T04:22:20;14.00;99.90
37518;DHT22;23366;52.498;13.446;2022-09-02T04:24:46;13.90;99.90
37518;DHT22;23366;52.498;13.446;2022-09-02T04:27:11;13.90;99.90
37518;DHT22;23366;52.498;13.446;2022-09-02T04:29:37;14.00;99.90
37518;DHT22;23366;52.498;13.446;2022-09-02T04:32:03;14.00;99.90
37518;DHT22;23366;52.498;13.446;2022-09-02T04:34:29;14.00;99.90
37518;DHT22;23366;52.498;13.446;2022-09-02T04:36:54;14.00;99.90
37518;DHT22;23366;52.498;13.446;2022-09-02T04:39:20;14.00;99.90
37518;DHT22;23366;52.498;13.446;2022-09-02T04:41:46;14.10;99.90
37518;DHT22;23366;52.498;13.446;2022-09-02T04:44:12;14.10;99.90
37518;DHT22;23366;52.498;13.446;2022-09-02T04:46:37;14.20;99.90
37518;DHT22;23366;52.498;13.446;2022-09-02T04:49:03;14.20;99.90
37518;DHT22;23366;52.498;13.446;2022-09-02T04:51:29;14.20;99.90
37518;DHT22;23366;52.498;13.446;2022-09-02T04:53:56;14.30;99.90
37518;DHT22;23366;52.498;13.446;2022-09-02T04:56:24;14.30;99.90
37518;DHT22;23366;52.498;13.446;2022-09-02T04:58:51;14.40;99.90
37518;DHT22;23366;52.498;13.446;2022-09-02T05:01:24;14.40;99.90
37518;DHT22;23366;52.498;13.446;2022-09-02T05:03:50;14.40;99.90
37518;DHT22;23366;52.498;13.446;2022-09-02T05:06:19;14.40;99.90
37518;DHT22;23366;52.498;13.446;2022-09-02T05:08:44;14.40;99.90
37518;DHT22;23366;52.498;13.446;2022-09-02T05:11:15;14.40;99.90
37518;DHT22;23366;52.498;13.446;2022-09-02T05:13:43;14.50;99.90
37518;DHT22;23366;52.498;13.446;2022-09-02T05:16:14;14.40;99.90
37518;DHT22;23366;52.498;13.446;2022-09-02T05:18:39;14.40;99.90
37518;DHT22;23366;52.498;13.446;2022-09-02T05:21:05;14.40;99.90
37518;DHT22;23366;52.498;13.446;2022-09-02T05:23:31;14.40;99.90
37518;DHT22;23366;52.498;13.446;2022-09-02T05:25:56;14.40;99.90
37518;DHT22;23366;52.498;13.446;2022-09-02T05:28:22;14.50;99.90
37518;DHT22;23366;52.498;13.446;2022-09-02T05:30:47;14.50;99.90
37518;DHT22;23366;52.498;13.446;2022-09-02T05:33:13;14.60;99.90
37518;DHT22;23366;52.498;13.446;2022-09-02T05:35:40;14.60;99.90
37518;DHT22;23366;52.498;13.446;2022-09-02T05:38:06;14.60;99.90
37518;DHT22;23366;52.498;13.446;2022-09-02T05:40:33;14.60;99.90
37518;DHT22;23366;52.498;13.446;2022-09-02T05:43:00;14.70;99.90
37518;DHT22;23366;52.498;13.446;2022-09-02T05:45:25;14.80;99.90
37518;DHT22;23366;52.498;13.446;2022-09-02T05:47:51;14.80;99.90
37518;DHT22;23366;52.498;13.446;2022-09-02T05:50:16;14.90;99.90
37518;DHT22;23366;52.498;13.446;2022-09-02T05:52:42;15.00;99.90
37518;DHT22;23366;52.498;13.446;2022-09-02T05:55:08;15.10;99.90
37518;DHT22;23366;52.498;13.446;2022-09-02T05:57:34;15.20;99.90
37518;DHT22;23366;52.498;13.446;2022-09-02T05:59:59;15.30;99.90
37518;DHT22;23366;52.498;13.446;2022-09-02T06:02:25;15.50;99.90
37518;DHT22;23366;52.498;13.446;2022-09-02T06:04:52;15.70;99.90
37518;DHT22;23366;52.498;13.446;2022-09-02T06:07:21;15.90;99.90
37518;DHT22;23366;52.498;13.446;2022-09-02T06:09:47;15.90;99.90
37518;DHT22;23366;52.498;13.446;2022-09-02T06:12:16;15.90;99.90
37518;DHT22;23366;52.498;13.446;2022-09-02T06:14:44;15.90;99.90
37518;DHT22;23366;52.498;13.446;2022-09-02T06:17:09;15.80;99.90
37518;DHT22;23366;52.498;13.446;2022-09-02T06:19:35;15.90;99.90
37518;DHT22;23366;52.498;13.446;2022-09-02T06:22:01;15.90;99.90
37518;DHT22;23366;52.498;13.446;2022-09-02T06:24:28;16.00;99.90
37518;DHT22;23366;52.498;13.446;2022-09-02T06:26:54;16.10;99.90
37518;DHT22;23366;52.498;13.446;2022-09-02T06:29:22;16.30;99.90
37518;DHT22;23366;52.498;13.446;2022-09-02T06:31:49;16.40;99.90
37518;DHT22;23366;52.498;13.446;2022-09-02T06:34:18;16.60;99.90
37518;DHT22;23366;52.498;13.446;2022-09-02T06:36:45;16.90;99.90
37518;DHT22;23366;52.498;13.446;2022-09-02T06:39:14;17.20;99.90
37518;DHT22;23366;52.498;13.446;2022-09-02T06:41:41;17.40;99.90
37518;DHT22;23366;52.498;13.446;2022-09-02T06:44:09;17.50;99.90
37518;DHT22;23366;52.498;13.446;2022-09-02T06:46:44;18.20;99.90
37518;DHT22;23366;52.498;13.446;2022-09-02T06:49:11;19.50;99.90
37518;DHT22;23366;52.498;13.446;2022-09-02T06:51:40;20.90;97.20
37518;DHT22;23366;52.498;13.446;2022-09-02T06:54:07;21.90;94.00
37518;DHT22;23366;52.498;13.446;2022-09-02T06:56:34;23.00;92.50
37518;DHT22;23366;52.498;13.446;2022-09-02T06:59:00;24.00;89.20
37518;DHT22;23366;52.498;13.446;2022-09-02T07:01:28;24.70;85.80
37518;DHT22;23366;52.498;13.446;2022-09-02T07:03:55;25.60;82.00
37518;DHT22;23366;52.498;13.446;2022-09-02T07:06:45;26.50;79.00
37518;DHT22;23366;52.498;13.446;2022-09-02T07:09:15;27.20;76.60
37518;DHT22;23366;52.498;13.446;2022-09-02T07:11:41;27.30;74.50
37518;DHT22;23366;52.498;13.446;2022-09-02T07:14:07;27.60;74.30
37518;DHT22;23366;52.498;13.446;2022-09-02T07:16:35;27.90;71.10
37518;DHT22;23366;52.498;13.446;2022-09-02T07:19:03;27.90;71.00
37518;DHT22;23366;52.498;13.446;2022-09-02T07:21:29;28.00;70.10
37518;DHT22;23366;52.498;13.446;2022-09-02T07:23:57;28.10;69.50
37518;DHT22;23366;52.498;13.446;2022-09-02T07:26:24;28.70;69.00
37518;DHT22;23366;52.498;13.446;2022-09-02T07:28:50;28.70;67.10
37518;DHT22;23366;52.498;13.446;2022-09-02T07:31:16;29.30;66.70
37518;DHT22;23366;52.498;13.446;2022-09-02T07:33:43;29.90;65.60
37518;DHT22;23366;52.498;13.446;2022-09-02T07:36:11;30.50;63.40
37518;DHT22;23366;52.498;13.446;2022-09-02T07:38:38;30.80;62.00
37518;DHT22;23366;52.498;13.446;2022-09-02T07:41:06;30.60;61.20
37518;DHT22;23366;52.498;13.446;2022-09-02T07:43:35;30.90;60.80
37518;DHT22;23366;52.498;13.446;2022-09-02T07:46:01;31.20;59.90
37518;DHT22;23366;52.498;13.446;2022-09-02T07:48:29;31.60;59.40
37518;DHT22;23366;52.498;13.446;2022-09-02T07:50:55;32.20;58.40
37518;DHT22;23366;52.498;13.446;2022-09-02T07:53:21;32.60;57.70
37518;DHT22;23366;52.498;13.446;2022-09-02T07:55:48;32.70;55.90
37518;DHT22;23366;52.498;13.446;2022-09-02T07:58:16;33.00;55.60
37518;DHT22;23366;52.498;13.446;2022-09-02T08:00:43;33.30;55.20
37518;DHT22;23366;52.498;13.446;2022-09-02T08:03:09;32.80;54.50
37518;DHT22;23366;52.498;13.446;2022-09-02T08:05:35;31.90;55.80
37518;DHT22;23366;52.498;13.446;2022-09-02T08:08:01;30.70;57.40
37518;DHT22;23366;52.498;13.446;2022-09-02T08:10:28;28.90;59.60
37518;DHT22;23366;52.498;13.446;2022-09-02T08:12:58;28.10;61.20
37518;DHT22;23366;52.498;13.446;2022-09-02T08:15:26;27.60;62.90
37518;DHT22;23366;52.498;13.446;2022-09-02T08:17:53;27.30;63.20
37518;DHT22;23366;52.498;13.446;2022-09-02T08:20:19;26.90;64.40
37518;DHT22;23366;52.498;13.446;2022-09-02T08:22:45;27.00;65.20
37518;DHT22;23366;52.498;13.446;2022-09-02T08:25:10;27.00;64.50
37518;DHT22;23366;52.498;13.446;2022-09-02T08:27:36;26.50;66.30
37518;DHT22;23366;52.498;13.446;2022-09-02T08:30:07;26.60;67.00
37518;DHT22;23366;52.498;13.446;2022-09-02T08:32:34;26.90;66.10
37518;DHT22;23366;52.498;13.446;2022-09-02T08:35:00;27.70;65.00
37518;DHT22;23366;52.498;13.446;2022-09-02T08:37:28;28.70;63.80
37518;DHT22;23366;52.498;13.446;2022-09-02T08:39:53;28.70;62.00
37518;DHT22;23366;52.498;13.446;2022-09-02T08:42:31;29.20;61.90
37518;DHT22;23366;52.498;13.446;2022-09-02T08:48:15;30.40;58.90
37518;DHT22;23366;52.498;13.446;2022-09-02T08:50:45;29.90;58.90
37518;DHT22;23366;52.498;13.446;2022-09-02T08:53:16;30.00;59.60
37518;DHT22;23366;52.498;13.446;2022-09-02T08:55:47;29.90;58.90
37518;DHT22;23366;52.498;13.446;2022-09-02T08:58:20;29.70;59.80
37518;DHT22;23366;52.498;13.446;2022-09-02T09:01:03;29.10;59.90
37518;DHT22;23366;52.498;13.446;2022-09-02T09:03:38;27.90;62.10
37518;DHT22;23366;52.498;13.446;2022-09-02T09:06:19;27.50;61.90
37518;DHT22;23366;52.498;13.446;2022-09-02T09:08:56;26.70;62.60
37518;DHT22;23366;52.498;13.446;2022-09-02T09:14:30;25.00;63.30
37518;DHT22;23366;52.498;13.446;2022-09-02T09:16:59;24.30;65.10
37518;DHT22;23366;52.498;13.446;2022-09-02T09:19:51;23.70;67.40
37518;DHT22;23366;52.498;13.446;2022-09-02T09:22:35;23.20;67.80
37518;DHT22;23366;52.498;13.446;2022-09-02T09:25:08;22.80;68.70
37518;DHT22;23366;52.498;13.446;2022-09-02T09:27:35;22.50;69.50
37518;DHT22;23366;52.498;13.446;2022-09-02T09:30:01;22.30;70.90
37518;DHT22;23366;52.498;13.446;2022-09-02T09:32:33;22.30;71.30
37518;DHT22;23366;52.498;13.446;2022-09-02T09:35:05;22.40;71.80
37518;DHT22;23366;52.498;13.446;2022-09-02T09:37:51;22.50;72.20
37518;DHT22;23366;52.498;13.446;2022-09-02T09:42:47;22.40;70.80
37518;DHT22;23366;52.498;13.446;2022-09-02T09:45:35;22.40;71.40
37518;DHT22;23366;52.498;13.446;2022-09-02T09:53:20;22.00;72.70
37518;DHT22;23366;52.498;13.446;2022-09-02T09:55:56;22.00;71.90
37518;DHT22;23366;52.498;13.446;2022-09-02T09:58:25;21.90;72.20
37518;DHT22;23366;52.498;13.446;2022-09-02T10:00:51;21.70;73.10
37518;DHT22;23366;52.498;13.446;2022-09-02T10:03:26;21.50;73.10
37518;DHT22;23366;52.498;13.446;2022-09-02T10:05:54;21.50;73.20
37518;DHT22;23366;52.498;13.446;2022-09-02T10:08:22;21.50;73.70
37518;DHT22;23366;52.498;13.446;2022-09-02T10:13:25;21.50;72.30
37518;DHT22;23366;52.498;13.446;2022-09-02T10:16:08;21.40;73.20
37518;DHT22;23366;52.498;13.446;2022-09-02T10:18:43;21.40;74.00
37518;DHT22;23366;52.498;13.446;2022-09-02T10:21:38;21.20;74.50
37518;DHT22;23366;52.498;13.446;2022-09-02T10:27:14;21.10;74.10
37518;DHT22;23366;52.498;13.446;2022-09-02T10:29:46;21.00;74.80
37518;DHT22;23366;52.498;13.446;2022-09-02T10:32:43;21.00;74.20
37518;DHT22;23366;52.498;13.446;2022-09-02T10:35:27;21.00;74.80
37518;DHT22;23366;52.498;13.446;2022-09-02T10:38:11;20.80;74.50
37518;DHT22;23366;52.498;13.446;2022-09-02T10:40:46;20.80;73.90
37518;DHT22;23366;52.498;13.446;2022-09-02T10:45:49;20.80;75.30
37518;DHT22;23366;52.498;13.446;2022-09-02T10:48:40;20.70;75.80
37518;DHT22;23366;52.498;13.446;2022-09-02T10:53:59;20.90;73.30
37518;DHT22;23366;52.498;13.446;2022-09-02T10:56:30;21.00;74.10
37518;DHT22;23366;52.498;13.446;2022-09-02T10:59:09;21.00;74.60
37518;DHT22;23366;52.498;13.446;2022-09-02T11:02:03;21.00;73.50
37518;DHT22;23366;52.498;13.446;2022-09-02T11:07:02;21.00;73.00
37518;DHT22;23366;52.498;13.446;2022-09-02T11:09:40;21.00;72.60
37518;DHT22;23366;52.498;13.446;2022-09-02T11:12:14;21.20;72.50
37518;DHT22;23366;52.498;13.446;2022-09-02T11:17:29;21.40;70.60
37518;DHT22;23366;52.498;13.446;2022-09-02T11:22:56;21.40;71.70
37518;DHT22;23366;52.498;13.446;2022-09-02T11:25:29;21.20;72.20
37518;DHT22;23366;52.498;13.446;2022-09-02T11:28:05;21.20;71.90
37518;DHT22;23366;52.498;13.446;2022-09-02T11:33:37;21.30;71.80
37518;DHT22;23366;52.498;13.446;2022-09-02T11:36:07;21.30;71.10
37518;DHT22;23366;52.498;13.446;2022-09-02T11:41:32;21.00;71.50
37518;DHT22;23366;52.498;13.446;2022-09-02T11:44:12;21.00;72.20
37518;DHT22;23366;52.498;13.446;2022-09-02T11:53:04;21.80;67.40
37518;DHT22;23366;52.498;13.446;2022-09-02T11:55:34;21.60;67.30
37518;DHT22;23366;52.498;13.446;2022-09-02T11:58:01;21.50;67.40
37518;DHT22;23366;52.498;13.446;2022-09-02T12:00:34;21.50;67.80
37518;DHT22;23366;52.498;13.446;2022-09-02T12:13:40;21.10;69.90
37518;DHT22;23366;52.498;13.446;2022-09-02T12:21:25;21.00;70.80
37518;DHT22;23366;52.498;13.446;2022-09-02T12:31:50;21.60;68.00
37518;DHT22;23366;52.498;13.446;2022-09-02T12:36:48;21.80;68.60
37518;DHT22;23366;52.498;13.446;2022-09-02T12:50:18;22.10;68.50
37518;DHT22;23366;52.498;13.446;2022-09-02T12:52:45;22.20;68.70
37518;DHT22;23366;52.498;13.446;2022-09-02T12:55:27;22.20;67.30
37518;DHT22;23366;52.498;13.446;2022-09-02T12:58:06;22.10;66.40
37518;DHT22;23366;52.498;13.446;2022-09-02T13:03:14;22.30;66.70
37518;DHT22;23366;52.498;13.446;2022-09-02T13:06:05;22.40;66.60
37518;DHT22;23366;52.498;13.446;2022-09-02T13:14:25;22.20;66.10
37518;DHT22;23366;52.498;13.446;2022-09-02T13:17:03;21.90;66.30
37518;DHT22;23366;52.498;13.446;2022-09-02T13:33:31;22.20;66.50
37518;DHT22;23366;52.498;13.446;2022-09-02T13:35:57;22.10;66.40
37518;DHT22;23366;52.498;13.446;2022-09-02T13:38:25;22.00;66.30
37518;DHT22;23366;52.498;13.446;2022-09-02T13:40:51;21.90;66.30
37518;DHT22;23366;52.498;13.446;2022-09-02T13:43:20;21.80;66.20
37518;DHT22;23366;52.498;13.446;2022-09-02T13:45:47;21.70;66.30
37518;DHT22;23366;52.498;13.446;2022-09-02T13:48:18;21.70;66.60
37518;DHT22;23366;52.498;13.446;2022-09-02T13:50:45;21.70;65.90
37518;DHT22;23366;52.498;13.446;2022-09-02T13:53:23;21.70;65.50
37518;DHT22;23366;52.498;13.446;2022-09-02T13:55:53;21.60;66.10
37518;DHT22;23366;52.498;13.446;2022-09-02T13:58:34;21.70;66.60
37518;DHT22;23366;52.498;13.446;2022-09-02T14:01:28;21.70;66.70
37518;DHT22;23366;52.498;13.446;2022-09-02T14:03:56;21.60;66.20
37518;DHT22;23366;52.498;13.446;2022-09-02T14:06:25;21.50;66.70
37518;DHT22;23366;52.498;13.446;2022-09-02T14:08:55;21.30;67.00
37518;DHT22;23366;52.498;13.446;2022-09-02T14:11:22;21.20;66.90
37518;DHT22;23366;52.498;13.446;2022-09-02T14:13:49;21.10;67.80
37518;DHT22;23366;52.498;13.446;2022-09-02T14:16:27;21.10;67.80
37518;DHT22;23366;52.498;13.446;2022-09-02T14:21:48;21.30;67.40
37518;DHT22;23366;52.498;13.446;2022-09-02T14:24:22;21.40;67.60
37518;DHT22;23366;52.498;13.446;2022-09-02T14:26:50;21.40;66.30
37518;DHT22;23366;52.498;13.446;2022-09-02T14:29:18;21.40;66.40
37518;DHT22;23366;52.498;13.446;2022-09-02T14:32:01;21.20;65.40
37518;DHT22;23366;52.498;13.446;2022-09-02T14:34:35;21.20;66.40
37518;DHT22;23366;52.498;13.446;2022-09-02T14:37:18;21.10;66.50
37518;DHT22;23366;52.498;13.446;2022-09-02T14:42:40;21.00;66.50
37518;DHT22;23366;52.498;13.446;2022-09-02T14:45:09;21.00;67.00
37518;DHT22;23366;52.498;13.446;2022-09-02T14:47:37;21.10;67.20
37518;DHT22;23366;52.498;13.446;2022-09-02T14:50:03;21.00;67.20
37518;DHT22;23366;52.498;13.446;2022-09-02T14:52:33;20.90;66.70
37518;DHT22;23366;52.498;13.446;2022-09-02T14:55:01;20.90;67.10
37518;DHT22;23366;52.498;13.446;2022-09-02T14:57:34;20.70;66.60
37518;DHT22;23366;52.498;13.446;2022-09-02T15:00:08;20.60;67.20
37518;DHT22;23366;52.498;13.446;2022-09-02T15:02:41;20.50;68.00
37518;DHT22;23366;52.498;13.446;2022-09-02T15:05:23;20.40;68.00
37518;DHT22;23366;52.498;13.446;2022-09-02T15:07:57;20.40;68.40
37518;DHT22;23366;52.498;13.446;2022-09-02T15:10:26;20.40;68.80
37518;DHT22;23366;52.498;13.446;2022-09-02T15:13:25;20.50;68.30
37518;DHT22;23366;52.498;13.446;2022-09-02T15:15:52;20.70;68.20
37518;DHT22;23366;52.498;13.446;2022-09-02T15:18:20;20.80;67.50
37518;DHT22;23366;52.498;13.446;2022-09-02T15:20:46;20.90;67.30
37518;DHT22;23366;52.498;13.446;2022-09-02T15:23:12;21.10;67.20
37518;DHT22;23366;52.498;13.446;2022-09-02T15:25:38;21.10;66.40
37518;DHT22;23366;52.498;13.446;2022-09-02T15:28:04;21.10;66.60
37518;DHT22;23366;52.498;13.446;2022-09-02T15:30:33;21.10;66.60
37518;DHT22;23366;52.498;13.446;2022-09-02T15:33:02;21.00;66.30
37518;DHT22;23366;52.498;13.446;2022-09-02T15:35:30;20.90;65.60
37518;DHT22;23366;52.498;13.446;2022-09-02T15:37:56;20.90;66.50
37518;DHT22;23366;52.498;13.446;2022-09-02T15:40:22;20.80;66.80
37518;DHT22;23366;52.498;13.446;2022-09-02T15:42:48;20.80;67.20
37518;DHT22;23366;52.498;13.446;2022-09-02T15:45:13;20.70;67.70
37518;DHT22;23366;52.498;13.446;2022-09-02T15:47:40;20.70;67.70
37518;DHT22;23366;52.498;13.446;2022-09-02T15:50:07;20.70;66.60
37518;DHT22;23366;52.498;13.446;2022-09-02T15:52:33;20.70;66.30
37518;DHT22;23366;52.498;13.446;2022-09-02T15:55:03;20.60;66.30
37518;DHT22;23366;52.498;13.446;2022-09-02T15:57:32;20.60;66.70
37518;DHT22;23366;52.498;13.446;2022-09-02T15:59:59;20.60;66.80
37518;DHT22;23366;52.498;13.446;2022-09-02T16:02:26;20.60;67.40
37518;DHT22;23366;52.498;13.446;2022-09-02T16:04:52;20.50;67.30
37518;DHT22;23366;52.498;13.446;2022-09-02T16:07:19;20.50;68.00
37518;DHT22;23366;52.498;13.446;2022-09-02T16:09:49;20.40;67.70
37518;DHT22;23366;52.498;13.446;2022-09-02T16:12:15;20.40;67.80
37518;DHT22;23366;52.498;13.446;2022-09-02T16:14:43;20.30;68.10
37518;DHT22;23366;52.498;13.446;2022-09-02T16:17:10;20.30;68.30
37518;DHT22;23366;52.498;13.446;2022-09-02T16:19:39;20.20;69.10
37518;DHT22;23366;52.498;13.446;2022-09-02T16:22:05;20.20;68.70
37518;DHT22;23366;52.498;13.446;2022-09-02T16:24:31;20.10;68.70
37518;DHT22;23366;52.498;13.446;2022-09-02T16:26:58;20.10;68.90
37518;DHT22;23366;52.498;13.446;2022-09-02T16:29:23;20.00;69.50
37518;DHT22;23366;52.498;13.446;2022-09-02T16:31:52;20.00;69.80
37518;DHT22;23366;52.498;13.446;2022-09-02T16:34:18;20.00;70.10
37518;DHT22;23366;52.498;13.446;2022-09-02T16:36:46;20.00;70.40
37518;DHT22;23366;52.498;13.446;2022-09-02T16:39:13;20.00;70.30
37518;DHT22;23366;52.498;13.446;2022-09-02T16:41:47;19.90;69.30
37518;DHT22;23366;52.498;13.446;2022-09-02T16:44:19;19.90;69.80
37518;DHT22;23366;52.498;13.446;2022-09-02T16:46:46;19.90;69.30
37518;DHT22;23366;52.498;13.446;2022-09-02T16:49:14;19.90;69.20
37518;DHT22;23366;52.498;13.446;2022-09-02T16:51:47;19.80;69.00
37518;DHT22;23366;52.498;13.446;2022-09-02T16:54:13;19.80;69.40
37518;DHT22;23366;52.498;13.446;2022-09-02T16:56:39;19.80;68.90
37518;DHT22;23366;52.498;13.446;2022-09-02T16:59:07;19.80;69.20
37518;DHT22;23366;52.498;13.446;2022-09-02T17:01:33;19.80;69.70
37518;DHT22;23366;52.498;13.446;2022-09-02T17:04:00;19.80;69.20
37518;DHT22;23366;52.498;13.446;2022-09-02T17:06:26;19.80;68.80
37518;DHT22;23366;52.498;13.446;2022-09-02T17:08:52;19.80;68.50
37518;DHT22;23366;52.498;13.446;2022-09-02T17:11:32;19.80;68.90
37518;DHT22;23366;52.498;13.446;2022-09-02T17:14:06;19.70;68.40
37518;DHT22;23366;52.498;13.446;2022-09-02T17:16:36;19.70;69.00
37518;DHT22;23366;52.498;13.446;2022-09-02T17:19:02;19.70;70.00